TAP1695 LPPT-LPMA
Flight info
| Callsign | TAP1695 |
|---|---|
| Flight time | 1h 27m |
| Altitude | 33000 |
| Route | ULVOT DCT GALPA DCT RAKUN |
| Aircraft | A321/M-SDE3FGHIRWY/LB1 |
Departure
| Time | 2026-05-07 18:44 |
|---|---|
| Airport | Lisbon Humberto Delgado Airport (LPPT) |
Arrival
| Time | 2026-05-07 20:12 |
|---|---|
| Airport | Cristiano Ronaldo International Airport (LPMA) |
| Time | Latitude | Longitude | Altitude | Speed | Heading |
|---|---|---|---|---|---|
| 2026-05-07 17:49 | 38.77160 | -9.13129 | 334 ft | 0 kts | 78° |
| 2026-05-07 18:30 | 38.77159 | -9.13135 | 337 ft | 3 kts | 79° |
| 2026-05-07 18:30 | 38.77155 | -9.13166 | 336 ft | 2 kts | 79° |
| 2026-05-07 18:30 | 38.77148 | -9.13194 | 333 ft | 4 kts | 49° |
| 2026-05-07 18:31 | 38.77129 | -9.13207 | 333 ft | 3 kts | 348° |
| 2026-05-07 18:31 | 38.77106 | -9.13200 | 334 ft | 1 kts | 347° |
| 2026-05-07 18:33 | 38.77117 | -9.13203 | 335 ft | 6 kts | 347° |
| 2026-05-07 18:33 | 38.77196 | -9.13225 | 335 ft | 17 kts | 348° |
| 2026-05-07 18:33 | 38.77315 | -9.13276 | 336 ft | 17 kts | 310° |
| 2026-05-07 18:34 | 38.77313 | -9.13395 | 345 ft | 5 kts | 258° |
| 2026-05-07 18:34 | 38.77312 | -9.13395 | 345 ft | 0 kts | 258° |
| 2026-05-07 18:34 | 38.77307 | -9.13429 | 347 ft | 8 kts | 258° |
| 2026-05-07 18:34 | 38.77288 | -9.13542 | 351 ft | 17 kts | 258° |
| 2026-05-07 18:35 | 38.77259 | -9.13716 | 360 ft | 20 kts | 258° |
| 2026-05-07 18:35 | 38.77204 | -9.13855 | 358 ft | 17 kts | 209° |
| 2026-05-07 18:35 | 38.77099 | -9.13915 | 356 ft | 16 kts | 204° |
| 2026-05-07 18:35 | 38.76992 | -9.13972 | 350 ft | 17 kts | 202° |
| 2026-05-07 18:36 | 38.76878 | -9.14032 | 354 ft | 18 kts | 203° |
| 2026-05-07 18:36 | 38.76758 | -9.14097 | 351 ft | 19 kts | 203° |
| 2026-05-07 18:36 | 38.76646 | -9.14157 | 343 ft | 15 kts | 202° |
| 2026-05-07 18:36 | 38.76592 | -9.14228 | 338 ft | 10 kts | 274° |
| 2026-05-07 18:37 | 38.76601 | -9.14261 | 337 ft | 0 kts | 294° |
| 2026-05-07 18:42 | 38.76603 | -9.14267 | 336 ft | 4 kts | 293° |
| 2026-05-07 18:42 | 38.76654 | -9.14368 | 335 ft | 16 kts | 332° |
| 2026-05-07 18:43 | 38.76686 | -9.14365 | 335 ft | 0 kts | 19° |
| 2026-05-07 18:43 | 38.76773 | -9.14320 | 336 ft | 43 kts | 22° |
| 2026-05-07 18:43 | 38.77255 | -9.14064 | 362 ft | 104 kts | 22° |
| 2026-05-07 18:44 | 38.78083 | -9.13621 | 370 ft | 152 kts | 23° |
| 2026-05-07 18:44 | 38.79130 | -9.13054 | 649 ft | 168 kts | 20° |
| 2026-05-07 18:44 | 38.80203 | -9.12478 | 1272 ft | 168 kts | 18° |
| 2026-05-07 18:44 | 38.81312 | -9.11883 | 1802 ft | 178 kts | 19° |
| 2026-05-07 18:45 | 38.82463 | -9.11043 | 2054 ft | 201 kts | 27° |
| 2026-05-07 18:45 | 38.83724 | -9.10072 | 2227 ft | 222 kts | 26° |
| 2026-05-07 18:45 | 38.85093 | -9.09018 | 2521 ft | 239 kts | 28° |
| 2026-05-07 18:45 | 38.86575 | -9.07869 | 2910 ft | 254 kts | 28° |
| 2026-05-07 18:46 | 38.87890 | -9.06334 | 3467 ft | 269 kts | 57° |
| 2026-05-07 18:46 | 38.88418 | -9.04018 | 4080 ft | 278 kts | 92° |
| 2026-05-07 18:46 | 38.87890 | -9.01666 | 4790 ft | 275 kts | 121° |
| 2026-05-07 18:46 | 38.86938 | -8.99545 | 5590 ft | 273 kts | 127° |
| 2026-05-07 18:47 | 38.85620 | -8.97857 | 6423 ft | 265 kts | 151° |
| 2026-05-07 18:47 | 38.83938 | -8.96981 | 7157 ft | 261 kts | 172° |
| 2026-05-07 18:47 | 38.82137 | -8.97038 | 7825 ft | 262 kts | 195° |
| 2026-05-07 18:47 | 38.80491 | -8.98059 | 8451 ft | 267 kts | 213° |
| 2026-05-07 18:48 | 38.78952 | -8.99407 | 9092 ft | 270 kts | 213° |
| 2026-05-07 18:48 | 38.77396 | -9.00774 | 9735 ft | 273 kts | 213° |
| 2026-05-07 18:48 | 38.75814 | -9.02159 | 10194 ft | 283 kts | 212° |
| 2026-05-07 18:48 | 38.74127 | -9.03630 | 10311 ft | 303 kts | 212° |
| 2026-05-07 18:49 | 38.72328 | -9.05193 | 10434 ft | 322 kts | 213° |
| 2026-05-07 18:49 | 38.70423 | -9.06848 | 10568 ft | 340 kts | 213° |
| 2026-05-07 18:49 | 38.68422 | -9.08589 | 10684 ft | 356 kts | 213° |
| 2026-05-07 18:49 | 38.66328 | -9.10410 | 10843 ft | 371 kts | 213° |
| 2026-05-07 18:50 | 38.64166 | -9.12288 | 11041 ft | 381 kts | 213° |
| 2026-05-07 18:50 | 38.61957 | -9.14204 | 11424 ft | 385 kts | 213° |
| 2026-05-07 18:50 | 38.59736 | -9.16129 | 11842 ft | 386 kts | 213° |
| 2026-05-07 18:50 | 38.57507 | -9.18058 | 12270 ft | 388 kts | 213° |
| 2026-05-07 18:51 | 38.55265 | -9.19997 | 12675 ft | 390 kts | 212° |
| 2026-05-07 18:51 | 38.53093 | -9.21871 | 13053 ft | 392 kts | 212° |
| 2026-05-07 18:51 | 38.50829 | -9.23824 | 13442 ft | 393 kts | 212° |
| 2026-05-07 18:51 | 38.48557 | -9.25782 | 13820 ft | 395 kts | 212° |
| 2026-05-07 18:52 | 38.46272 | -9.27748 | 14162 ft | 397 kts | 213° |
| 2026-05-07 18:52 | 38.44222 | -9.29511 | 14481 ft | 398 kts | 213° |
| 2026-05-07 18:52 | 38.41927 | -9.31488 | 14837 ft | 399 kts | 213° |
| 2026-05-07 18:52 | 38.39619 | -9.33477 | 15212 ft | 400 kts | 213° |
| 2026-05-07 18:53 | 38.37311 | -9.35464 | 15579 ft | 402 kts | 213° |
| 2026-05-07 18:53 | 38.35096 | -9.37366 | 15936 ft | 403 kts | 213° |
| 2026-05-07 18:53 | 38.32794 | -9.39338 | 16314 ft | 405 kts | 213° |
| 2026-05-07 18:53 | 38.30454 | -9.41338 | 16697 ft | 407 kts | 213° |
| 2026-05-07 18:54 | 38.28098 | -9.43355 | 17082 ft | 408 kts | 214° |
| 2026-05-07 18:54 | 38.25843 | -9.45287 | 17461 ft | 409 kts | 214° |
| 2026-05-07 18:54 | 38.23480 | -9.47314 | 17905 ft | 410 kts | 214° |
| 2026-05-07 18:54 | 38.21119 | -9.49342 | 18318 ft | 410 kts | 215° |
| 2026-05-07 18:55 | 38.18747 | -9.51372 | 18641 ft | 412 kts | 214° |
| 2026-05-07 18:55 | 38.16365 | -9.53403 | 18938 ft | 413 kts | 214° |
| 2026-05-07 18:55 | 38.13969 | -9.55447 | 19221 ft | 415 kts | 214° |
| 2026-05-07 18:55 | 38.11564 | -9.57494 | 19523 ft | 417 kts | 214° |
| 2026-05-07 18:56 | 38.09145 | -9.59549 | 19813 ft | 419 kts | 214° |
| 2026-05-07 18:56 | 38.06716 | -9.61611 | 20102 ft | 421 kts | 214° |
| 2026-05-07 18:56 | 38.04278 | -9.63684 | 20389 ft | 423 kts | 215° |
| 2026-05-07 18:56 | 38.02058 | -9.66122 | 20651 ft | 425 kts | 227° |
| 2026-05-07 18:57 | 38.00140 | -9.68991 | 20921 ft | 427 kts | 229° |
| 2026-05-07 18:57 | 37.98230 | -9.71885 | 21205 ft | 429 kts | 229° |
| 2026-05-07 18:57 | 37.96318 | -9.74800 | 21477 ft | 431 kts | 229° |
| 2026-05-07 18:57 | 37.94393 | -9.77734 | 21758 ft | 433 kts | 229° |
| 2026-05-07 18:58 | 37.92465 | -9.80669 | 22011 ft | 435 kts | 229° |
| 2026-05-07 18:58 | 37.90521 | -9.83621 | 22279 ft | 437 kts | 229° |
| 2026-05-07 18:58 | 37.88571 | -9.86575 | 22556 ft | 437 kts | 229° |
| 2026-05-07 18:58 | 37.86616 | -9.89531 | 22797 ft | 439 kts | 229° |
| 2026-05-07 18:59 | 37.84654 | -9.92493 | 23012 ft | 440 kts | 229° |
| 2026-05-07 18:59 | 37.82684 | -9.95468 | 23218 ft | 441 kts | 229° |
| 2026-05-07 18:59 | 37.80706 | -9.98451 | 23414 ft | 443 kts | 229° |
| 2026-05-07 18:59 | 37.78720 | -10.01440 | 23582 ft | 444 kts | 229° |
| 2026-05-07 19:00 | 37.76734 | -10.04430 | 23730 ft | 445 kts | 229° |
| 2026-05-07 19:00 | 37.74741 | -10.07429 | 23857 ft | 446 kts | 229° |
| 2026-05-07 19:00 | 37.72740 | -10.10435 | 23979 ft | 448 kts | 229° |
| 2026-05-07 19:00 | 37.70730 | -10.13437 | 24170 ft | 447 kts | 228° |
| 2026-05-07 19:01 | 37.68715 | -10.16426 | 24369 ft | 446 kts | 228° |
| 2026-05-07 19:01 | 37.66699 | -10.19403 | 24589 ft | 446 kts | 228° |
| 2026-05-07 19:01 | 37.64687 | -10.22364 | 24884 ft | 442 kts | 227° |
| 2026-05-07 19:01 | 37.62696 | -10.25288 | 25229 ft | 438 kts | 227° |
| 2026-05-07 19:02 | 37.60717 | -10.28195 | 25486 ft | 436 kts | 227° |
| 2026-05-07 19:02 | 37.58745 | -10.31092 | 25718 ft | 435 kts | 227° |
| 2026-05-07 19:02 | 37.56805 | -10.33945 | 25930 ft | 434 kts | 227° |
| 2026-05-07 19:02 | 37.54842 | -10.36835 | 26132 ft | 433 kts | 227° |
| 2026-05-07 19:03 | 37.52883 | -10.39716 | 26356 ft | 433 kts | 227° |
| 2026-05-07 19:03 | 37.50923 | -10.42594 | 26569 ft | 432 kts | 227° |
| 2026-05-07 19:03 | 37.48969 | -10.45461 | 26761 ft | 431 kts | 227° |
| 2026-05-07 19:03 | 37.47016 | -10.48324 | 27004 ft | 430 kts | 227° |
| 2026-05-07 19:04 | 37.45070 | -10.51171 | 27235 ft | 429 kts | 227° |
| 2026-05-07 19:04 | 37.43131 | -10.54011 | 27461 ft | 428 kts | 227° |
| 2026-05-07 19:04 | 37.41191 | -10.56844 | 27689 ft | 427 kts | 227° |
| 2026-05-07 19:04 | 37.39260 | -10.59661 | 27990 ft | 424 kts | 227° |
| 2026-05-07 19:05 | 37.37340 | -10.62464 | 28273 ft | 422 kts | 227° |
| 2026-05-07 19:05 | 37.35427 | -10.65254 | 28513 ft | 420 kts | 227° |
| 2026-05-07 19:05 | 37.33519 | -10.68031 | 28738 ft | 419 kts | 227° |
| 2026-05-07 19:05 | 37.31614 | -10.70800 | 28956 ft | 419 kts | 227° |
| 2026-05-07 19:06 | 37.29709 | -10.73563 | 29175 ft | 418 kts | 227° |
| 2026-05-07 19:06 | 37.25910 | -10.79061 | 29597 ft | 416 kts | 227° |
| 2026-05-07 19:06 | 37.24017 | -10.81805 | 29792 ft | 416 kts | 227° |
| 2026-05-07 19:07 | 37.22129 | -10.84549 | 29993 ft | 415 kts | 227° |
| 2026-05-07 19:07 | 37.20246 | -10.87285 | 30179 ft | 414 kts | 227° |
| 2026-05-07 19:07 | 37.18367 | -10.90006 | 30389 ft | 412 kts | 227° |
| 2026-05-07 19:07 | 37.16493 | -10.92713 | 30594 ft | 410 kts | 227° |
| 2026-05-07 19:08 | 37.14623 | -10.95409 | 30827 ft | 409 kts | 227° |
| 2026-05-07 19:08 | 37.12761 | -10.98092 | 31050 ft | 407 kts | 227° |
| 2026-05-07 19:08 | 37.10909 | -11.00757 | 31270 ft | 405 kts | 227° |
| 2026-05-07 19:08 | 37.09062 | -11.03417 | 31485 ft | 404 kts | 227° |
| 2026-05-07 19:09 | 37.07223 | -11.06066 | 31700 ft | 402 kts | 227° |
| 2026-05-07 19:09 | 37.05389 | -11.08703 | 31914 ft | 401 kts | 226° |
| 2026-05-07 19:09 | 37.03561 | -11.11333 | 32133 ft | 399 kts | 226° |
| 2026-05-07 19:09 | 37.01740 | -11.13950 | 32344 ft | 398 kts | 226° |
| 2026-05-07 19:10 | 36.99948 | -11.16522 | 32551 ft | 397 kts | 226° |
| 2026-05-07 19:10 | 36.98114 | -11.19148 | 32767 ft | 395 kts | 226° |
| 2026-05-07 19:10 | 36.96328 | -11.21704 | 32924 ft | 395 kts | 226° |
| 2026-05-07 19:10 | 36.94521 | -11.24290 | 32963 ft | 395 kts | 226° |
| 2026-05-07 19:11 | 36.90915 | -11.29456 | 32961 ft | 394 kts | 226° |
| 2026-05-07 19:11 | 36.87306 | -11.34615 | 32963 ft | 394 kts | 226° |
| 2026-05-07 19:12 | 36.83694 | -11.39757 | 32949 ft | 394 kts | 226° |
| 2026-05-07 19:12 | 36.80084 | -11.44889 | 32962 ft | 393 kts | 225° |
| 2026-05-07 19:13 | 36.76470 | -11.50016 | 32958 ft | 393 kts | 225° |
| 2026-05-07 19:13 | 36.72860 | -11.55141 | 32962 ft | 394 kts | 226° |
| 2026-05-07 19:14 | 36.69245 | -11.60270 | 32959 ft | 394 kts | 225° |
| 2026-05-07 19:14 | 36.65624 | -11.65390 | 32961 ft | 394 kts | 225° |
| 2026-05-07 19:15 | 36.61998 | -11.70506 | 32968 ft | 394 kts | 225° |
| 2026-05-07 19:15 | 36.58372 | -11.75623 | 32965 ft | 394 kts | 225° |
| 2026-05-07 19:16 | 36.54744 | -11.80729 | 32967 ft | 394 kts | 225° |
| 2026-05-07 19:16 | 36.51112 | -11.85832 | 32970 ft | 394 kts | 225° |
| 2026-05-07 19:17 | 36.47479 | -11.90931 | 32973 ft | 394 kts | 225° |
| 2026-05-07 19:17 | 36.43846 | -11.96022 | 32971 ft | 394 kts | 225° |
| 2026-05-07 19:18 | 36.40214 | -12.01108 | 32970 ft | 394 kts | 225° |
| 2026-05-07 19:18 | 36.36581 | -12.06192 | 32993 ft | 393 kts | 225° |
| 2026-05-07 19:19 | 36.32943 | -12.11257 | 32989 ft | 392 kts | 225° |
| 2026-05-07 19:19 | 36.29338 | -12.16268 | 32983 ft | 392 kts | 225° |
| 2026-05-07 19:20 | 36.25715 | -12.21301 | 32975 ft | 391 kts | 225° |
| 2026-05-07 19:20 | 36.22103 | -12.26333 | 32969 ft | 390 kts | 225° |
| 2026-05-07 19:21 | 36.18490 | -12.31350 | 32974 ft | 390 kts | 225° |
| 2026-05-07 19:21 | 36.14867 | -12.36358 | 32971 ft | 390 kts | 225° |
| 2026-05-07 19:22 | 36.11247 | -12.41354 | 33028 ft | 391 kts | 225° |
| 2026-05-07 19:22 | 36.07624 | -12.46359 | 32946 ft | 390 kts | 225° |
| 2026-05-07 19:23 | 36.04007 | -12.51352 | 32950 ft | 390 kts | 225° |
| 2026-05-07 19:23 | 36.00406 | -12.56303 | 32952 ft | 390 kts | 225° |
| 2026-05-07 19:24 | 35.96752 | -12.61318 | 32960 ft | 390 kts | 225° |
| 2026-05-07 19:24 | 35.93145 | -12.66269 | 32962 ft | 391 kts | 225° |
| 2026-05-07 19:25 | 35.89510 | -12.71252 | 32965 ft | 391 kts | 225° |
| 2026-05-07 19:25 | 35.85875 | -12.76237 | 32970 ft | 391 kts | 225° |
| 2026-05-07 19:26 | 35.82234 | -12.81218 | 32985 ft | 391 kts | 225° |
| 2026-05-07 19:26 | 35.78582 | -12.86181 | 32966 ft | 391 kts | 225° |
| 2026-05-07 19:27 | 35.74923 | -12.91144 | 32972 ft | 391 kts | 225° |
| 2026-05-07 19:27 | 35.71274 | -12.96119 | 32977 ft | 391 kts | 225° |
| 2026-05-07 19:28 | 35.68241 | -13.00248 | 32976 ft | 391 kts | 225° |
| 2026-05-07 19:28 | 35.64585 | -13.05208 | 32977 ft | 391 kts | 225° |
| 2026-05-07 19:29 | 35.60925 | -13.10162 | 32983 ft | 392 kts | 225° |
| 2026-05-07 19:29 | 35.56664 | -13.15918 | 32989 ft | 391 kts | 225° |
| 2026-05-07 19:30 | 35.53598 | -13.20053 | 32983 ft | 391 kts | 225° |
| 2026-05-07 19:30 | 35.49933 | -13.24989 | 32959 ft | 391 kts | 225° |
| 2026-05-07 19:31 | 35.46271 | -13.29929 | 32961 ft | 392 kts | 225° |
| 2026-05-07 19:31 | 35.42624 | -13.34839 | 32963 ft | 392 kts | 225° |
| 2026-05-07 19:32 | 35.38943 | -13.39766 | 32970 ft | 392 kts | 225° |
| 2026-05-07 19:32 | 35.35262 | -13.44697 | 32972 ft | 392 kts | 225° |
| 2026-05-07 19:33 | 35.31586 | -13.49632 | 33017 ft | 392 kts | 225° |
| 2026-05-07 19:33 | 35.27896 | -13.54577 | 32978 ft | 394 kts | 225° |
| 2026-05-07 19:34 | 35.24183 | -13.59530 | 32968 ft | 395 kts | 225° |
| 2026-05-07 19:34 | 35.20455 | -13.64479 | 32961 ft | 396 kts | 225° |
| 2026-05-07 19:35 | 35.16724 | -13.69440 | 32966 ft | 397 kts | 225° |
| 2026-05-07 19:35 | 35.12991 | -13.74406 | 32968 ft | 397 kts | 225° |
| 2026-05-07 19:36 | 35.09246 | -13.79372 | 32969 ft | 397 kts | 225° |
| 2026-05-07 19:36 | 35.05502 | -13.84335 | 32969 ft | 397 kts | 225° |
| 2026-05-07 19:37 | 35.01750 | -13.89304 | 32973 ft | 399 kts | 226° |
| 2026-05-07 19:37 | 34.97975 | -13.94297 | 32947 ft | 401 kts | 226° |
| 2026-05-07 19:38 | 34.94209 | -13.99270 | 32948 ft | 403 kts | 226° |
| 2026-05-07 19:38 | 34.90397 | -14.04290 | 32953 ft | 404 kts | 226° |
| 2026-05-07 19:39 | 34.86574 | -14.09310 | 32959 ft | 404 kts | 226° |
| 2026-05-07 19:39 | 34.82750 | -14.14327 | 32961 ft | 404 kts | 226° |
| 2026-05-07 19:40 | 34.78924 | -14.19348 | 32970 ft | 404 kts | 226° |
| 2026-05-07 19:40 | 34.75094 | -14.24365 | 32971 ft | 406 kts | 227° |
| 2026-05-07 19:41 | 34.71229 | -14.29408 | 32946 ft | 409 kts | 227° |
| 2026-05-07 19:41 | 34.67340 | -14.34481 | 32946 ft | 411 kts | 227° |
| 2026-05-07 19:42 | 34.63445 | -14.39576 | 32928 ft | 412 kts | 227° |
| 2026-05-07 19:42 | 34.59536 | -14.44672 | 32960 ft | 413 kts | 227° |
| 2026-05-07 19:43 | 34.55617 | -14.49762 | 32971 ft | 413 kts | 227° |
| 2026-05-07 19:43 | 34.51693 | -14.54841 | 32974 ft | 412 kts | 227° |
| 2026-05-07 19:44 | 34.47774 | -14.59923 | 32966 ft | 414 kts | 229° |
| 2026-05-07 19:44 | 34.43832 | -14.65033 | 32952 ft | 416 kts | 229° |
| 2026-05-07 19:45 | 34.39863 | -14.70151 | 32954 ft | 418 kts | 229° |
| 2026-05-07 19:45 | 34.35916 | -14.75256 | 32958 ft | 419 kts | 229° |
| 2026-05-07 19:46 | 34.31955 | -14.80423 | 32940 ft | 419 kts | 230° |
| 2026-05-07 19:46 | 34.27986 | -14.85584 | 32958 ft | 419 kts | 230° |
| 2026-05-07 19:47 | 34.24001 | -14.90739 | 32969 ft | 420 kts | 230° |
| 2026-05-07 19:47 | 34.20022 | -14.95897 | 32966 ft | 420 kts | 231° |
| 2026-05-07 19:48 | 34.16033 | -15.01059 | 32969 ft | 421 kts | 231° |
| 2026-05-07 19:48 | 34.12037 | -15.06217 | 32971 ft | 421 kts | 231° |
| 2026-05-07 19:49 | 34.08034 | -15.11382 | 32976 ft | 421 kts | 231° |
| 2026-05-07 19:49 | 34.04020 | -15.16542 | 32953 ft | 422 kts | 231° |
| 2026-05-07 19:50 | 34.00010 | -15.21694 | 32982 ft | 421 kts | 231° |
| 2026-05-07 19:50 | 33.96007 | -15.26839 | 32992 ft | 421 kts | 231° |
| 2026-05-07 19:51 | 33.92000 | -15.31972 | 32988 ft | 420 kts | 231° |
| 2026-05-07 19:51 | 33.87992 | -15.37099 | 32987 ft | 420 kts | 231° |
| 2026-05-07 19:52 | 33.83989 | -15.42219 | 32991 ft | 420 kts | 231° |
| 2026-05-07 19:52 | 33.80004 | -15.47297 | 32956 ft | 420 kts | 231° |
| 2026-05-07 19:53 | 33.77995 | -15.49856 | 32055 ft | 423 kts | 232° |
| 2026-05-07 19:53 | 33.75952 | -15.52461 | 30830 ft | 433 kts | 232° |
| 2026-05-07 19:53 | 33.73885 | -15.55097 | 29959 ft | 433 kts | 232° |
| 2026-05-07 19:53 | 33.71813 | -15.57732 | 28969 ft | 434 kts | 232° |
| 2026-05-07 19:54 | 33.69740 | -15.60361 | 28022 ft | 434 kts | 232° |
| 2026-05-07 19:54 | 33.67663 | -15.62988 | 27102 ft | 433 kts | 232° |
| 2026-05-07 19:54 | 33.65582 | -15.65622 | 26053 ft | 436 kts | 233° |
| 2026-05-07 19:54 | 33.63492 | -15.68273 | 24991 ft | 439 kts | 233° |
| 2026-05-07 19:55 | 33.61392 | -15.70943 | 24001 ft | 441 kts | 232° |
| 2026-05-07 19:55 | 33.59287 | -15.73612 | 23050 ft | 440 kts | 232° |
| 2026-05-07 19:55 | 33.57197 | -15.76248 | 22310 ft | 432 kts | 232° |
| 2026-05-07 19:55 | 33.55131 | -15.78838 | 21528 ft | 427 kts | 232° |
| 2026-05-07 19:56 | 33.53051 | -15.81356 | 20778 ft | 423 kts | 231° |
| 2026-05-07 19:56 | 33.50962 | -15.83804 | 20047 ft | 418 kts | 230° |
| 2026-05-07 19:56 | 33.48880 | -15.86204 | 19315 ft | 413 kts | 230° |
| 2026-05-07 19:56 | 33.46818 | -15.88573 | 18605 ft | 408 kts | 230° |
| 2026-05-07 19:57 | 33.44787 | -15.90920 | 17870 ft | 403 kts | 230° |
| 2026-05-07 19:57 | 33.42791 | -15.93240 | 17180 ft | 396 kts | 230° |
| 2026-05-07 19:57 | 33.40843 | -15.95512 | 16553 ft | 387 kts | 230° |
| 2026-05-07 19:57 | 33.38933 | -15.97746 | 15945 ft | 382 kts | 230° |
| 2026-05-07 19:58 | 33.37063 | -15.99933 | 15343 ft | 380 kts | 229° |
| 2026-05-07 19:58 | 33.35160 | -16.02161 | 14775 ft | 377 kts | 229° |
| 2026-05-07 19:58 | 33.33290 | -16.04345 | 14209 ft | 375 kts | 229° |
| 2026-05-07 19:58 | 33.31426 | -16.06519 | 13644 ft | 373 kts | 229° |
| 2026-05-07 19:59 | 33.29570 | -16.08682 | 13069 ft | 371 kts | 229° |
| 2026-05-07 19:59 | 33.27754 | -16.10797 | 12547 ft | 369 kts | 228° |
| 2026-05-07 19:59 | 33.25928 | -16.12927 | 12010 ft | 366 kts | 228° |
| 2026-05-07 19:59 | 33.24112 | -16.15041 | 11474 ft | 362 kts | 228° |
| 2026-05-07 20:00 | 33.22333 | -16.17103 | 11217 ft | 348 kts | 228° |
| 2026-05-07 20:00 | 33.20634 | -16.19063 | 11082 ft | 331 kts | 228° |
| 2026-05-07 20:00 | 33.19018 | -16.20930 | 10961 ft | 316 kts | 228° |
| 2026-05-07 20:00 | 33.17480 | -16.22709 | 10833 ft | 301 kts | 228° |
| 2026-05-07 20:01 | 33.16012 | -16.24407 | 10706 ft | 287 kts | 228° |
| 2026-05-07 20:01 | 33.14595 | -16.26048 | 10418 ft | 280 kts | 228° |
| 2026-05-07 20:01 | 33.13209 | -16.27660 | 10174 ft | 277 kts | 229° |
| 2026-05-07 20:01 | 33.11831 | -16.29266 | 9940 ft | 277 kts | 229° |
| 2026-05-07 20:02 | 33.10453 | -16.30870 | 9803 ft | 276 kts | 229° |
| 2026-05-07 20:02 | 33.09079 | -16.32465 | 9672 ft | 276 kts | 229° |
| 2026-05-07 20:02 | 33.07703 | -16.34058 | 9536 ft | 276 kts | 229° |
| 2026-05-07 20:02 | 33.06329 | -16.35648 | 9398 ft | 275 kts | 229° |
| 2026-05-07 20:03 | 33.04956 | -16.37235 | 9266 ft | 275 kts | 229° |
| 2026-05-07 20:03 | 33.03581 | -16.38826 | 9011 ft | 277 kts | 228° |
| 2026-05-07 20:03 | 33.02205 | -16.40414 | 8586 ft | 274 kts | 228° |
| 2026-05-07 20:03 | 33.00834 | -16.41993 | 8157 ft | 272 kts | 228° |
| 2026-05-07 20:04 | 32.99479 | -16.43553 | 7734 ft | 270 kts | 228° |
| 2026-05-07 20:04 | 32.98133 | -16.45103 | 7314 ft | 268 kts | 227° |
| 2026-05-07 20:04 | 32.96812 | -16.46624 | 6898 ft | 267 kts | 227° |
| 2026-05-07 20:04 | 32.95480 | -16.48157 | 6479 ft | 265 kts | 227° |
| 2026-05-07 20:05 | 32.94158 | -16.49679 | 6046 ft | 264 kts | 227° |
| 2026-05-07 20:05 | 32.92846 | -16.51190 | 5623 ft | 261 kts | 226° |
| 2026-05-07 20:05 | 32.91523 | -16.52663 | 5213 ft | 259 kts | 225° |
| 2026-05-07 20:05 | 32.90191 | -16.54091 | 4831 ft | 257 kts | 224° |
| 2026-05-07 20:06 | 32.88862 | -16.55493 | 4470 ft | 253 kts | 224° |
| 2026-05-07 20:06 | 32.87586 | -16.56836 | 4399 ft | 237 kts | 224° |
| 2026-05-07 20:06 | 32.86404 | -16.58084 | 4357 ft | 218 kts | 224° |
| 2026-05-07 20:06 | 32.85314 | -16.59238 | 4283 ft | 202 kts | 225° |
| 2026-05-07 20:07 | 32.84321 | -16.60357 | 4023 ft | 192 kts | 226° |
| 2026-05-07 20:07 | 32.83384 | -16.61458 | 3752 ft | 186 kts | 227° |
| 2026-05-07 20:07 | 32.82481 | -16.62528 | 3486 ft | 180 kts | 229° |
| 2026-05-07 20:07 | 32.81610 | -16.63561 | 3241 ft | 176 kts | 229° |
| 2026-05-07 20:08 | 32.80748 | -16.64580 | 3002 ft | 173 kts | 228° |
| 2026-05-07 20:08 | 32.79892 | -16.65589 | 2766 ft | 173 kts | 227° |
| 2026-05-07 20:08 | 32.79044 | -16.66588 | 2526 ft | 171 kts | 228° |
| 2026-05-07 20:08 | 32.78224 | -16.67551 | 2318 ft | 157 kts | 229° |
| 2026-05-07 20:09 | 32.77483 | -16.68419 | 2095 ft | 143 kts | 228° |
| 2026-05-07 20:09 | 32.76789 | -16.69234 | 1894 ft | 138 kts | 228° |
| 2026-05-07 20:09 | 32.76109 | -16.70035 | 1725 ft | 137 kts | 230° |
| 2026-05-07 20:10 | 32.74758 | -16.71622 | 1359 ft | 137 kts | 228° |
| 2026-05-07 20:10 | 32.74071 | -16.72426 | 1173 ft | 140 kts | 229° |
| 2026-05-07 20:10 | 32.73385 | -16.73228 | 997 ft | 137 kts | 226° |
| 2026-05-07 20:10 | 32.72708 | -16.74023 | 813 ft | 139 kts | 226° |
| 2026-05-07 20:11 | 32.72040 | -16.74806 | 651 ft | 135 kts | 224° |
| 2026-05-07 20:11 | 32.71364 | -16.75595 | 462 ft | 138 kts | 224° |
| 2026-05-07 20:11 | 32.70681 | -16.76396 | 262 ft | 137 kts | 225° |
| 2026-05-07 20:11 | 32.70038 | -16.77151 | 197 ft | 119 kts | 224° |
| 2026-05-07 20:12 | 32.69593 | -16.77674 | 176 ft | 63 kts | 224° |
| 2026-05-07 20:12 | 32.69401 | -16.77896 | 170 ft | 14 kts | 223° |
| 2026-05-07 20:12 | 32.69323 | -16.77953 | 169 ft | 13 kts | 172° |
| 2026-05-07 20:12 | 32.69292 | -16.77872 | 169 ft | 11 kts | 81° |
| 2026-05-07 20:13 | 32.69331 | -16.77804 | 169 ft | 10 kts | 45° |
| 2026-05-07 20:13 | 32.69377 | -16.77750 | 169 ft | 9 kts | 45° |
| 2026-05-07 20:13 | 32.69418 | -16.77701 | 169 ft | 8 kts | 45° |
| 2026-05-07 20:13 | 32.69411 | -16.77656 | 169 ft | 5 kts | 129° |
| 2026-05-07 20:14 | 32.69392 | -16.77634 | 169 ft | 2 kts | 137° |
| 2026-05-07 20:14 | 32.69388 | -16.77630 | 169 ft | 1 kts | 137° |
| 2026-05-07 20:14 | 32.69386 | -16.77628 | 169 ft | 0 kts | 138° |